Time;durP1;ratioP1;P1;durP2;ratioP2;P2;SDS_P1;SDS_P2;PMS_P1;PMS_P2;Temp;Humidity;BMP_temperature;BMP_pressure;BME280_temperature;BME280_humidity;BME280_pressure;Samples;Min_cycle;Max_cycle;Signal;HPM_P1;HPM_P2
2023/09/20 00:01:40;;;;;;;7.38;2.47;;;17.10;96.00;;;;;;5025450;28;20037;-51
2023/09/20 00:04:07;;;;;;;3.72;1.90;;;17.10;96.10;;;;;;5029223;28;20261;-51
2023/09/20 00:06:33;;;;;;;5.45;1.98;;;17.10;96.20;;;;;;5025873;28;20014;-51
2023/09/20 00:09:00;;;;;;;8.55;2.38;;;17.10;96.10;;;;;;5042577;28;20045;-51
2023/09/20 00:11:26;;;;;;;6.13;1.80;;;17.10;96.20;;;;;;5026018;28;20030;-51
2023/09/20 00:13:52;;;;;;;5.40;1.98;;;17.10;96.30;;;;;;5022255;28;20029;-48
2023/09/20 00:16:18;;;;;;;4.47;2.00;;;17.10;96.30;;;;;;5028151;28;20034;-49
2023/09/20 00:18:44;;;;;;;5.80;2.00;;;17.10;96.30;;;;;;5027459;28;20021;-51
2023/09/20 00:21:10;;;;;;;6.65;2.13;;;17.20;96.40;;;;;;5018772;28;20026;-48
2023/09/20 00:23:35;;;;;;;8.57;2.53;;;17.10;96.30;;;;;;5026406;28;20418;-50
2023/09/20 00:26:01;;;;;;;7.82;2.25;;;17.10;96.40;;;;;;5028792;28;20030;-51
2023/09/20 00:28:27;;;;;;;5.05;2.10;;;17.10;96.40;;;;;;5029616;28;20021;-50
2023/09/20 00:30:53;;;;;;;5.72;2.33;;;17.20;96.70;;;;;;5027913;28;20025;-51
2023/09/20 00:33:19;;;;;;;3.88;1.92;;;17.20;96.60;;;;;;5021364;28;20395;-52
2023/09/20 00:35:44;;;;;;;7.63;1.88;;;17.10;96.60;;;;;;5042680;28;20037;-52
2023/09/20 00:38:10;;;;;;;3.17;1.52;;;17.10;96.60;;;;;;5027163;28;20509;-52
2023/09/20 00:40:37;;;;;;;3.95;1.58;;;17.20;96.70;;;;;;5026681;28;20071;-52
2023/09/20 00:43:07;;;;;;;5.97;2.22;;;17.10;96.90;;;;;;5026365;28;20033;-51
2023/09/20 00:45:33;;;;;;;7.28;2.72;;;17.10;96.80;;;;;;5021914;28;20021;-52
2023/09/20 00:48:01;;;;;;;7.05;2.20;;;17.10;97.00;;;;;;5027575;28;20026;-52
2023/09/20 00:50:31;;;;;;;3.20;1.60;;;17.10;97.20;;;;;;5027624;28;20083;-52
2023/09/20 00:52:58;;;;;;;6.17;1.97;;;17.10;97.20;;;;;;5026186;28;20029;-52
2023/09/20 00:55:30;;;;;;;5.28;1.80;;;17.00;97.10;;;;;;5024046;28;20018;-52
2023/09/20 00:58:03;;;;;;;5.22;1.90;;;17.00;97.30;;;;;;5027718;28;20034;-51
2023/09/20 01:00:32;;;;;;;7.00;1.67;;;17.00;97.30;;;;;;5028214;28;20111;-52
2023/09/20 01:03:00;;;;;;;6.55;2.10;;;17.00;97.50;;;;;;5028156;28;20022;-52
2023/09/20 01:05:26;;;;;;;6.70;2.08;;;17.00;97.40;;;;;;5020415;28;20029;-51
2023/09/20 01:07:56;;;;;;;7.30;2.15;;;17.00;97.70;;;;;;5026819;28;20487;-52
2023/09/20 01:10:23;;;;;;;5.30;2.15;;;17.00;97.60;;;;;;5028268;28;20025;-52
2023/09/20 01:13:03;;;;;;;4.00;2.00;;;17.00;97.70;;;;;;5027377;28;20475;-52
2023/09/20 01:15:28;;;;;;;3.78;2.00;;;17.00;97.80;;;;;;5026089;28;20036;-52
2023/09/20 01:17:56;;;;;;;5.07;2.08;;;16.90;97.90;;;;;;5027976;28;20690;-52
2023/09/20 01:20:24;;;;;;;6.03;1.77;;;16.90;98.10;;;;;;5028343;28;20040;-52
2023/09/20 01:22:51;;;;;;;4.25;2.00;;;16.90;98.20;;;;;;5020814;28;20026;-51
2023/09/20 01:25:25;;;;;;;3.70;1.85;;;16.90;98.20;;;;;;5021820;28;20034;-52
2023/09/20 01:27:55;;;;;;;6.93;2.08;;;16.90;98.40;;;;;;5027572;28;20021;-52
2023/09/20 01:30:27;;;;;;;5.90;2.08;;;16.80;98.50;;;;;;5032073;28;20033;-52
2023/09/20 01:32:54;;;;;;;5.70;2.22;;;16.80;98.60;;;;;;5028144;28;20379;-48
2023/09/20 01:35:20;;;;;;;7.05;2.17;;;16.80;98.80;;;;;;5028351;28;20053;-53
2023/09/20 01:37:46;;;;;;;4.05;1.80;;;16.70;98.90;;;;;;5027316;28;20030;-52
2023/09/20 01:40:15;;;;;;;7.10;2.15;;;16.70;99.10;;;;;;5028159;28;20513;-52
2023/09/20 01:42:42;;;;;;;6.63;2.03;;;16.70;99.30;;;;;;5023560;28;20049;-51
2023/09/20 01:45:14;;;;;;;3.83;2.00;;;16.60;99.40;;;;;;5019800;28;20033;-51
2023/09/20 01:47:41;;;;;;;5.18;1.80;;;16.60;99.50;;;;;;5021422;28;20021;-52
2023/09/20 01:50:07;;;;;;;5.22;2.25;;;16.60;99.70;;;;;;5023919;28;20072;-51
2023/09/20 01:52:32;;;;;;;4.45;1.60;;;16.60;99.80;;;;;;5017658;28;20022;-52
2023/09/20 01:55:00;;;;;;;7.28;2.50;;;16.70;99.90;;;;;;5018982;28;20126;-51
2023/09/20 01:57:26;;;;;;;4.70;2.08;;;16.60;99.90;;;;;;5014668;28;20476;-49
2023/09/20 01:59:51;;;;;;;4.07;2.65;;;16.60;99.90;;;;;;5026071;28;20030;-49
2023/09/20 02:02:17;;;;;;;6.63;2.00;;;16.60;99.90;;;;;;5028373;28;20030;-49
2023/09/20 02:04:42;;;;;;;3.10;1.70;;;16.70;99.90;;;;;;5028559;28;20123;-50
2023/09/20 02:07:09;;;;;;;5.97;2.08;;;16.60;99.90;;;;;;5019918;28;20112;-51
2023/09/20 02:09:35;;;;;;;5.47;2.10;;;16.60;99.90;;;;;;5014186;28;20092;-51
2023/09/20 02:12:00;;;;;;;6.03;2.10;;;16.60;99.90;;;;;;5019689;28;20120;-48
2023/09/20 02:14:27;;;;;;;5.32;1.80;;;16.60;99.90;;;;;;5028382;28;20032;-52
2023/09/20 02:16:52;;;;;;;3.53;2.03;;;16.60;99.90;;;;;;5011635;28;20018;-49
2023/09/20 02:19:19;;;;;;;5.60;2.10;;;16.60;99.90;;;;;;5012708;28;20040;-50
2023/09/20 02:21:45;;;;;;;3.63;1.90;;;16.60;99.90;;;;;;5009309;28;20460;-49
2023/09/20 02:24:11;;;;;;;5.57;1.80;;;16.60;99.90;;;;;;5009609;28;20068;-49
2023/09/20 02:26:37;;;;;;;9.57;2.25;;;16.60;99.90;;;;;;5017595;28;20360;-50
2023/09/20 02:29:03;;;;;;;4.05;1.80;;;16.60;99.90;;;;;;5011790;28;20889;-52
2023/09/20 02:31:28;;;;;;;7.82;1.77;;;16.60;99.90;;;;;;5012685;28;20404;-52
2023/09/20 02:33:55;;;;;;;3.15;1.77;;;16.60;99.90;;;;;;5009482;28;20040;-51
2023/09/20 02:36:20;;;;;;;9.00;2.25;;;16.60;99.90;;;;;;5009263;28;20022;-52
2023/09/20 02:38:46;;;;;;;4.93;2.10;;;16.60;99.90;;;;;;5011335;28;20056;-52
2023/09/20 02:41:12;;;;;;;8.02;2.15;;;16.60;99.90;;;;;;5012948;28;20053;-51
2023/09/20 02:43:38;;;;;;;7.47;2.00;;;16.60;99.90;;;;;;5013252;28;20076;-52
2023/09/20 02:46:05;;;;;;;6.03;2.28;;;16.50;99.90;;;;;;5013242;28;20071;-52
2023/09/20 02:48:31;;;;;;;6.10;2.55;;;16.50;99.90;;;;;;5020901;28;20485;-52
2023/09/20 02:51:00;;;;;;;6.60;2.42;;;16.60;99.90;;;;;;5020580;28;20117;-52
2023/09/20 02:53:26;;;;;;;6.20;2.33;;;16.50;99.90;;;;;;5024567;28;20029;-52
2023/09/20 02:55:54;;;;;;;4.00;2.03;;;16.50;99.90;;;;;;5015712;28;20083;-52
2023/09/20 02:58:19;;;;;;;6.13;1.92;;;16.50;99.90;;;;;;5013740;28;20452;-53
2023/09/20 03:00:50;;;;;;;6.05;2.30;;;16.50;99.90;;;;;;5018525;28;20100;-53
2023/09/20 03:03:17;;;;;;;9.98;2.30;;;16.50;99.90;;;;;;5013067;28;20384;-52
2023/09/20 03:05:43;;;;;;;5.20;2.70;;;16.50;99.90;;;;;;5024436;28;20018;-52
2023/09/20 03:08:12;;;;;;;4.00;2.22;;;16.40;99.90;;;;;;5013503;28;20352;-52
2023/09/20 03:10:38;;;;;;;6.07;2.13;;;16.40;99.90;;;;;;5014370;28;20030;-53
2023/09/20 03:13:05;;;;;;;6.90;2.85;;;16.40;99.90;;;;;;5013607;28;20025;-55
2023/09/20 03:15:32;;;;;;;7.90;2.47;;;16.40;99.90;;;;;;5013806;28;20018;-53
2023/09/20 03:18:02;;;;;;;4.57;2.08;;;16.40;99.90;;;;;;5021803;28;20056;-53
2023/09/20 03:20:32;;;;;;;7.35;2.35;;;16.40;99.90;;;;;;5019246;28;20094;-53
2023/09/20 03:23:04;;;;;;;6.40;2.08;;;16.40;99.90;;;;;;5023085;28;20021;-52
2023/09/20 03:25:36;;;;;;;5.18;2.05;;;16.30;99.90;;;;;;5024693;28;20026;-52
2023/09/20 03:28:03;;;;;;;5.93;2.33;;;16.30;99.90;;;;;;5014883;28;20034;-53
2023/09/20 03:30:31;;;;;;;6.28;2.72;;;16.30;99.90;;;;;;5013415;28;20075;-53
2023/09/20 03:32:57;;;;;;;7.38;2.60;;;16.30;99.90;;;;;;5016465;28;20476;-52
2023/09/20 03:35:23;;;;;;;5.13;2.22;;;16.30;99.90;;;;;;5013754;28;20034;-52
2023/09/20 03:37:48;;;;;;;8.20;1.77;;;16.30;99.90;;;;;;5021544;28;20026;-52
2023/09/20 03:40:19;;;;;;;6.38;2.40;;;16.30;99.90;;;;;;5016414;28;20034;-52
2023/09/20 03:42:46;;;;;;;6.10;2.15;;;16.30;99.90;;;;;;5020892;28;20036;-52
2023/09/20 03:45:13;;;;;;;4.80;2.13;;;16.30;99.90;;;;;;5019632;28;20183;-52
2023/09/20 03:47:56;;;;;;;6.05;2.28;;;16.30;99.90;;;;;;5019971;28;20052;-53
2023/09/20 03:50:22;;;;;;;7.70;2.05;;;16.30;99.90;;;;;;5013559;28;20386;-53
2023/09/20 03:52:48;;;;;;;6.10;2.10;;;16.30;99.90;;;;;;5020430;28;20029;-52
2023/09/20 03:55:14;;;;;;;8.30;2.40;;;16.30;99.90;;;;;;5019800;28;20109;-54
2023/09/20 03:57:40;;;;;;;6.60;2.10;;;16.30;99.90;;;;;;5026896;28;20021;-54
2023/09/20 04:00:07;;;;;;;3.65;2.28;;;16.30;99.90;;;;;;5016976;28;20395;-54
2023/09/20 04:02:34;;;;;;;5.20;2.00;;;16.30;99.90;;;;;;5013194;28;20017;-53
2023/09/20 04:05:05;;;;;;;5.75;2.20;;;16.30;99.90;;;;;;5012744;28;20115;-54
2023/09/20 04:07:31;;;;;;;8.77;3.45;;;16.30;99.90;;;;;;5019442;28;20045;-54
2023/09/20 04:09:57;;;;;;;5.70;2.03;;;16.30;99.90;;;;;;5022596;28;20022;-54
2023/09/20 04:12:23;;;;;;;8.27;2.90;;;16.30;99.90;;;;;;5013024;28;20032;-54
2023/09/20 04:14:51;;;;;;;4.63;2.17;;;16.20;99.90;;;;;;5024561;28;20025;-54
2023/09/20 04:17:17;;;;;;;6.15;2.67;;;16.20;99.90;;;;;;5024752;28;20022;-53
2023/09/20 04:19:42;;;;;;;5.20;2.42;;;16.20;99.90;;;;;;5013635;28;20108;-54
2023/09/20 04:22:10;;;;;;;5.95;2.35;;;16.20;99.90;;;;;;5013779;28;20403;-52
2023/09/20 04:24:36;;;;;;;4.82;2.45;;;16.20;99.90;;;;;;5029371;28;20037;-52
2023/09/20 04:27:05;;;;;;;10.02;2.45;;;16.20;99.90;;;;;;5013537;28;21119;-51
2023/09/20 04:29:31;;;;;;;7.68;2.40;;;16.20;99.90;;;;;;5013775;28;20028;-52
2023/09/20 04:31:57;;;;;;;9.70;2.63;;;16.20;99.90;;;;;;5014993;28;20099;-52
2023/09/20 04:34:23;;;;;;;5.90;2.40;;;16.20;99.90;;;;;;5022214;28;20470;-52
2023/09/20 04:36:49;;;;;;;6.80;2.78;;;16.20;99.90;;;;;;5017132;28;20068;-52
2023/09/20 04:39:14;;;;;;;6.57;2.00;;;16.20;99.90;;;;;;5013633;28;20041;-52
2023/09/20 04:41:40;;;;;;;6.78;2.88;;;16.20;99.90;;;;;;5026349;28;20478;-53
2023/09/20 04:44:06;;;;;;;3.95;2.47;;;16.20;99.90;;;;;;5015085;28;20034;-53
2023/09/20 04:46:34;;;;;;;7.60;2.47;;;16.20;99.90;;;;;;5018141;28;20018;-52
2023/09/20 04:48:59;;;;;;;7.13;2.20;;;16.20;99.90;;;;;;5020666;28;20034;-52
2023/09/20 04:51:26;;;;;;;4.97;2.58;;;16.20;99.90;;;;;;5013055;28;20072;-52
2023/09/20 04:53:51;;;;;;;8.07;2.65;;;16.20;99.90;;;;;;5014561;28;20028;-53
2023/09/20 04:56:17;;;;;;;7.30;2.80;;;16.20;99.90;;;;;;5019626;28;20026;-53
2023/09/20 04:58:42;;;;;;;5.75;2.15;;;16.10;99.90;;;;;;5028865;28;20084;-51
2023/09/20 05:01:14;;;;;;;5.97;2.58;;;16.10;99.90;;;;;;5024555;28;20610;-52
2023/09/20 05:03:40;;;;;;;6.07;2.10;;;16.20;99.90;;;;;;5023551;28;20053;-52
2023/09/20 05:06:06;;;;;;;8.73;2.70;;;16.20;99.90;;;;;;5019961;28;20072;-52
2023/09/20 05:08:32;;;;;;;8.43;2.47;;;16.10;99.90;;;;;;5016754;28;20030;-51
2023/09/20 05:10:58;;;;;;;6.30;2.50;;;16.20;99.90;;;;;;5014724;28;20080;-52
2023/09/20 05:13:24;;;;;;;13.45;3.08;;;16.20;99.90;;;;;;5019878;28;20018;-52
2023/09/20 05:15:52;;;;;;;6.43;2.70;;;16.20;99.90;;;;;;5013884;28;20021;-51
2023/09/20 05:18:18;;;;;;;5.60;2.90;;;16.20;99.90;;;;;;5025331;28;20025;-52
2023/09/20 05:20:47;;;;;;;5.07;2.42;;;16.20;99.90;;;;;;5018220;28;20026;-52
2023/09/20 05:23:13;;;;;;;9.93;2.88;;;16.20;99.90;;;;;;5014342;28;20099;-52
2023/09/20 05:25:39;;;;;;;9.93;4.30;;;16.20;99.90;;;;;;5012439;28;20471;-52
2023/09/20 05:28:05;;;;;;;8.15;3.05;;;16.20;99.90;;;;;;5019319;28;20021;-51
2023/09/20 05:30:32;;;;;;;7.88;2.90;;;16.20;99.90;;;;;;5013447;28;20061;-53
2023/09/20 05:32:58;;;;;;;8.90;3.00;;;16.20;99.90;;;;;;5015307;28;20045;-52
2023/09/20 05:35:25;;;;;;;10.70;3.03;;;16.20;99.90;;;;;;5017555;28;20025;-52
2023/09/20 05:37:51;;;;;;;7.53;2.92;;;16.20;99.90;;;;;;5022298;28;20104;-52
2023/09/20 05:40:21;;;;;;;8.25;3.10;;;16.20;99.90;;;;;;5013926;28;20120;-52
2023/09/20 05:42:50;;;;;;;9.32;3.03;;;16.20;99.90;;;;;;5014598;28;20064;-53
2023/09/20 05:45:16;;;;;;;8.43;3.17;;;16.30;99.90;;;;;;5014485;28;20018;-54
2023/09/20 05:47:42;;;;;;;10.82;3.97;;;16.20;99.90;;;;;;5018986;28;20121;-52
2023/09/20 05:50:10;;;;;;;9.50;3.80;;;16.20;99.90;;;;;;5021744;28;20057;-52
2023/09/20 05:52:40;;;;;;;11.25;4.18;;;16.20;99.90;;;;;;5018772;28;20018;-53
2023/09/20 05:55:13;;;;;;;17.30;4.22;;;16.20;99.90;;;;;;5014272;28;20014;-53
2023/09/20 05:57:42;;;;;;;8.05;2.72;;;16.20;99.90;;;;;;5019017;28;20029;-53
2023/09/20 06:00:18;;;;;;;13.02;3.80;;;16.20;99.90;;;;;;5014586;28;20029;-54
2023/09/20 06:02:44;;;;;;;12.88;2.83;;;16.20;99.90;;;;;;5016819;28;20094;-54
2023/09/20 06:05:14;;;;;;;11.95;3.60;;;16.20;99.90;;;;;;5015773;28;20298;-53
2023/09/20 06:07:40;;;;;;;7.60;2.47;;;16.20;99.90;;;;;;5021868;28;20025;-53
2023/09/20 06:10:07;;;;;;;8.85;3.67;;;16.20;99.90;;;;;;5022975;28;20026;-52
2023/09/20 06:12:33;;;;;;;5.60;2.28;;;16.20;99.90;;;;;;5017878;28;20032;-52
2023/09/20 06:14:59;;;;;;;12.13;3.28;;;16.30;99.90;;;;;;5022586;28;20410;-51
2023/09/20 06:17:29;;;;;;;9.77;3.17;;;16.30;99.90;;;;;;5015231;28;20104;-52
2023/09/20 06:19:57;;;;;;;7.20;2.92;;;16.40;99.90;;;;;;5025055;28;20105;-52
2023/09/20 06:22:23;;;;;;;4.88;2.30;;;16.40;99.90;;;;;;5018070;28;20026;-52
2023/09/20 06:24:48;;;;;;;5.07;2.80;;;16.50;99.90;;;;;;5017613;28;20476;-54
2023/09/20 06:27:14;;;;;;;8.52;2.67;;;16.60;99.90;;;;;;5021749;28;20040;-52
2023/09/20 06:29:39;;;;;;;4.60;2.28;;;16.60;99.90;;;;;;5040309;28;20029;-53
2023/09/20 06:32:05;;;;;;;5.15;2.30;;;16.80;99.90;;;;;;5020162;28;20636;-54
2023/09/20 06:34:31;;;;;;;8.88;2.45;;;16.80;99.90;;;;;;5018105;28;20036;-54
2023/09/20 06:36:56;;;;;;;11.13;2.70;;;16.90;99.90;;;;;;5019819;28;20057;-55
2023/09/20 06:39:22;;;;;;;11.45;2.80;;;17.00;99.90;;;;;;5024394;28;20030;-53
2023/09/20 06:41:49;;;;;;;8.25;2.50;;;17.00;99.90;;;;;;5019108;28;20038;-53
2023/09/20 06:44:14;;;;;;;5.50;2.38;;;17.10;99.90;;;;;;5026908;28;20037;-54
2023/09/20 06:46:42;;;;;;;5.43;2.58;;;17.20;99.90;;;;;;5023676;28;20021;-54
2023/09/20 06:49:08;;;;;;;9.55;2.75;;;17.30;99.90;;;;;;5024115;28;20328;-55
2023/09/20 06:51:34;;;;;;;8.15;3.10;;;17.30;99.90;;;;;;5021938;28;20057;-51
2023/09/20 06:54:00;;;;;;;10.77;3.08;;;17.30;99.90;;;;;;5025823;28;20503;-52
2023/09/20 06:56:26;;;;;;;5.72;2.20;;;17.30;99.90;;;;;;5018704;28;20021;-52
2023/09/20 06:58:53;;;;;;;6.10;2.40;;;17.40;99.90;;;;;;5039809;28;20026;-52
2023/09/20 07:01:19;;;;;;;5.03;2.35;;;17.40;99.90;;;;;;5019427;28;20061;-51
2023/09/20 07:03:45;;;;;;;3.92;2.30;;;17.50;99.90;;;;;;5021766;28;20058;-50
2023/09/20 07:06:11;;;;;;;5.78;3.03;;;17.40;99.90;;;;;;5023372;28;20017;-50
2023/09/20 07:08:37;;;;;;;6.43;2.47;;;17.40;99.90;;;;;;5022075;28;20109;-51
2023/09/20 07:11:04;;;;;;;5.18;2.67;;;17.50;99.90;;;;;;5022613;28;20121;-51
2023/09/20 07:13:32;;;;;;;9.70;2.40;;;17.50;99.90;;;;;;5018209;28;20021;-51
2023/09/20 07:16:04;;;;;;;6.47;2.50;;;17.60;99.90;;;;;;5020266;28;20029;-51
2023/09/20 07:18:33;;;;;;;5.40;2.63;;;17.60;99.90;;;;;;5022187;28;20041;-51
2023/09/20 07:20:58;;;;;;;6.18;2.70;;;17.60;99.90;;;;;;5026102;28;20026;-51
2023/09/20 07:23:24;;;;;;;9.52;2.45;;;17.70;99.90;;;;;;5023167;28;20284;-51
2023/09/20 07:25:50;;;;;;;4.97;2.47;;;17.80;99.90;;;;;;5033855;28;20014;-51
2023/09/20 07:28:19;;;;;;;9.40;3.15;;;17.80;99.90;;;;;;5029156;28;20502;-51
2023/09/20 07:30:45;;;;;;;6.20;2.92;;;17.90;99.90;;;;;;5020264;28;20033;-51
2023/09/20 07:33:11;;;;;;;10.32;2.97;;;18.00;99.90;;;;;;5026997;28;20045;-51
2023/09/20 07:35:38;;;;;;;5.78;2.60;;;18.10;99.90;;;;;;5018265;28;20033;-50
2023/09/20 07:41:13;;;;;;;10.30;2.42;;;18.20;99.90;;;;;;5017446;28;20047;-51
2023/09/20 07:43:43;;;;;;;7.82;2.60;;;18.30;99.90;;;;;;5042127;28;20029;-51
2023/09/20 07:46:09;;;;;;;12.02;2.70;;;18.30;99.90;;;;;;5023943;28;20021;-51
2023/09/20 07:48:37;;;;;;;9.65;2.65;;;18.40;99.90;;;;;;5022048;28;20018;-51
2023/09/20 07:51:04;;;;;;;7.10;2.97;;;18.40;99.90;;;;;;5037947;28;20116;-51
2023/09/20 07:53:30;;;;;;;4.57;2.10;;;18.50;99.90;;;;;;5015487;28;20025;-49
2023/09/20 07:56:03;;;;;;;6.57;2.03;;;18.60;99.90;;;;;;5020151;28;20025;-51
2023/09/20 07:58:30;;;;;;;6.22;2.58;;;18.70;99.90;;;;;;5016877;28;20036;-51
2023/09/20 08:00:56;;;;;;;6.90;2.40;;;18.80;99.90;;;;;;5018399;28;20030;-51
2023/09/20 08:03:23;;;;;;;7.78;2.58;;;18.90;99.90;;;;;;5019216;28;20372;-51
2023/09/20 08:05:50;;;;;;;6.25;2.38;;;19.10;99.90;;;;;;5019080;28;20093;-50
2023/09/20 08:08:16;;;;;;;6.82;2.85;;;19.20;99.90;;;;;;5026057;28;20087;-51
2023/09/20 08:10:43;;;;;;;4.95;2.25;;;19.30;99.90;;;;;;5025493;28;20029;-53
2023/09/20 08:13:09;;;;;;;9.13;2.20;;;19.50;99.90;;;;;;5019461;28;20671;-50
2023/09/20 08:15:41;;;;;;;10.98;2.97;;;19.80;99.90;;;;;;5021040;28;20036;-51
2023/09/20 08:20:55;;;;;;;2.95;2.42;;;21.40;99.90;;;;;;5021819;28;20533;-53
2023/09/20 09:01:47;;;;;;;3.80;2.00;;;30.50;74.60;;;;;;5021764;28;20059;-53
2023/09/20 09:04:18;;;;;;;2.63;1.92;;;30.70;75.00;;;;;;5017674;28;20021;-54
2023/09/20 09:06:45;;;;;;;4.43;2.15;;;31.60;71.10;;;;;;5033053;28;20049;-54
2023/09/20 09:09:10;;;;;;;3.63;1.92;;;30.30;71.60;;;;;;5020409;28;20021;-53
2023/09/20 09:11:36;;;;;;;4.97;1.40;;;29.50;74.20;;;;;;5021406;28;20030;-53
2023/09/20 09:14:03;;;;;;;2.83;1.80;;;30.30;73.50;;;;;;5020347;28;20045;-54
2023/09/20 09:16:33;;;;;;;2.85;1.70;;;31.40;73.40;;;;;;5018592;28;20025;-54
2023/09/20 09:19:02;;;;;;;4.57;1.40;;;32.00;71.10;;;;;;5017970;28;20029;-53
2023/09/20 09:21:27;;;;;;;9.10;2.00;;;32.30;69.50;;;;;;5018761;28;20025;-53
2023/09/20 09:23:53;;;;;;;3.92;1.52;;;32.70;66.70;;;;;;5017243;28;20084;-53
2023/09/20 09:26:19;;;;;;;4.18;1.73;;;31.50;69.20;;;;;;5020253;28;20040;-53
2023/09/20 09:28:45;;;;;;;3.03;1.70;;;31.20;69.10;;;;;;5018708;28;20096;-53
2023/09/20 09:31:13;;;;;;;2.72;1.45;;;30.70;69.70;;;;;;5019387;28;20025;-53
2023/09/20 09:33:39;;;;;;;3.67;1.90;;;30.40;70.20;;;;;;5031520;28;20495;-53
2023/09/20 09:36:05;;;;;;;6.93;2.28;;;30.30;70.70;;;;;;5020361;28;20079;-54
2023/09/20 09:38:34;;;;;;;4.80;2.25;;;30.30;69.80;;;;;;5016048;28;20090;-53
2023/09/20 09:41:01;;;;;;;4.57;1.77;;;30.00;70.60;;;;;;5018056;28;20068;-55
2023/09/20 09:43:30;;;;;;;5.28;1.77;;;30.60;71.20;;;;;;5019437;28;20511;-53
2023/09/20 09:46:04;;;;;;;4.70;2.20;;;31.10;67.90;;;;;;5019910;28;20121;-53
2023/09/20 09:48:32;;;;;;;4.60;2.00;;;30.40;69.30;;;;;;5021511;28;20040;-53
2023/09/20 09:51:01;;;;;;;3.03;2.00;;;30.30;68.80;;;;;;5023286;28;20017;-54
2023/09/20 09:53:29;;;;;;;3.78;1.88;;;30.20;69.30;;;;;;5022895;28;20398;-53
2023/09/20 09:55:56;;;;;;;3.58;1.83;;;30.70;69.90;;;;;;5019249;28;20026;-53
2023/09/20 09:58:22;;;;;;;5.15;1.95;;;31.00;67.80;;;;;;5019969;28;20032;-53
2023/09/20 10:00:53;;;;;;;3.65;2.00;;;30.90;69.60;;;;;;5018590;28;20181;-53
2023/09/20 10:03:34;;;;;;;6.93;2.28;;;32.00;67.80;;;;;;5022229;28;20093;-54
2023/09/20 10:06:09;;;;;;;2.47;1.65;;;32.70;66.70;;;;;;5021190;28;20401;-54
2023/09/20 10:08:40;;;;;;;2.17;1.52;;;33.60;65.50;;;;;;5019620;28;20385;-54
2023/09/20 10:11:07;;;;;;;2.85;1.60;;;34.10;63.70;;;;;;5021174;28;20445;-54
2023/09/20 10:13:35;;;;;;;3.75;1.98;;;34.00;63.00;;;;;;5025008;28;20033;-54
2023/09/20 10:16:04;;;;;;;6.83;2.30;;;34.00;62.20;;;;;;5020766;28;20028;-54
2023/09/20 10:18:33;;;;;;;2.13;1.50;;;32.70;62.70;;;;;;5021377;28;20488;-54
2023/09/20 10:21:12;;;;;;;3.30;1.95;;;32.70;64.90;;;;;;5018532;28;20644;-53
2023/09/20 10:23:38;;;;;;;4.95;1.80;;;33.00;62.90;;;;;;5023588;28;20033;-53
2023/09/20 10:26:14;;;;;;;9.07;2.05;;;31.90;65.30;;;;;;5021433;28;20025;-52
2023/09/20 10:28:42;;;;;;;4.43;2.13;;;31.00;67.40;;;;;;5036904;28;20155;-52
2023/09/20 10:31:13;;;;;;;6.80;1.73;;;31.00;67.00;;;;;;5033972;28;20391;-52
2023/09/20 10:33:45;;;;;;;7.85;2.03;;;31.60;65.60;;;;;;5016405;28;20125;-53
2023/09/20 10:36:37;;;;;;;3.85;1.95;;;31.60;65.20;;;;;;5017876;28;20255;-53
2023/09/20 10:39:18;;;;;;;4.43;1.92;;;31.40;66.00;;;;;;5021226;28;20049;-53
2023/09/20 10:41:45;;;;;;;3.67;2.00;;;31.80;66.20;;;;;;5025524;28;20428;-57
2023/09/20 10:44:36;;;;;;;5.55;1.98;;;32.20;66.00;;;;;;5021077;28;20025;-54
2023/09/20 10:47:11;;;;;;;3.75;1.67;;;32.50;64.10;;;;;;5022187;28;20443;-53
2023/09/20 10:49:45;;;;;;;3.20;1.48;;;32.10;64.60;;;;;;5019961;28;20032;-53
2023/09/20 10:52:11;;;;;;;2.90;1.75;;;31.10;66.90;;;;;;5020240;28;20463;-53
2023/09/20 10:54:38;;;;;;;4.25;1.30;;;31.50;65.60;;;;;;5018557;28;20033;-53
2023/09/20 10:57:09;;;;;;;2.80;1.70;;;31.80;66.20;;;;;;5020324;28;20026;-53
2023/09/20 10:59:36;;;;;;;2.53;1.65;;;31.90;66.00;;;;;;5037459;28;20025;-53
2023/09/20 11:02:12;;;;;;;2.75;1.70;;;32.10;65.90;;;;;;5022092;28;20106;-52
2023/09/20 11:04:38;;;;;;;2.92;1.50;;;32.60;63.80;;;;;;5024647;28;20068;-53
2023/09/20 11:07:05;;;;;;;3.28;1.70;;;31.70;65.40;;;;;;5020238;28;20390;-51
2023/09/20 11:09:33;;;;;;;4.50;1.48;;;31.80;67.20;;;;;;5020288;28;20025;-52
2023/09/20 11:12:06;;;;;;;1.63;1.33;;;32.10;65.50;;;;;;5023273;28;20026;-52
2023/09/20 11:14:33;;;;;;;4.72;1.52;;;31.80;66.40;;;;;;5024258;28;20537;-52
2023/09/20 11:16:59;;;;;;;3.38;1.50;;;30.90;67.10;;;;;;5041729;28;20041;-52
2023/09/20 11:19:25;;;;;;;4.05;1.90;;;31.40;66.10;;;;;;5028096;28;20083;-52
2023/09/20 11:21:53;;;;;;;3.40;1.50;;;32.20;67.40;;;;;;5023000;28;20030;-52
2023/09/20 11:24:19;;;;;;;3.95;1.50;;;32.20;65.10;;;;;;5027713;28;20053;-52
2023/09/20 11:26:47;;;;;;;2.53;1.25;;;30.80;66.60;;;;;;5026064;28;20112;-52
2023/09/20 11:29:15;;;;;;;4.32;1.63;;;31.00;68.10;;;;;;5020376;28;20296;-52
2023/09/20 11:31:44;;;;;;;3.88;1.35;;;30.20;67.50;;;;;;5021373;28;20045;-51
2023/09/20 11:34:10;;;;;;;4.07;1.87;;;29.80;67.90;;;;;;5021213;28;20035;-51
2023/09/20 11:36:40;;;;;;;3.25;1.40;;;28.80;70.10;;;;;;5022331;28;20022;-51
2023/09/20 11:39:06;;;;;;;5.72;1.60;;;28.90;71.60;;;;;;5017787;28;20021;-52
2023/09/20 11:41:33;;;;;;;4.57;1.85;;;29.30;71.00;;;;;;5024098;28;20521;-52
2023/09/20 11:44:00;;;;;;;4.00;1.83;;;29.70;71.40;;;;;;5024848;28;20033;-52
2023/09/20 11:46:30;;;;;;;6.35;1.90;;;30.20;70.00;;;;;;5025594;28;20550;-52
2023/09/20 11:49:00;;;;;;;4.72;1.45;;;30.30;68.80;;;;;;5024137;28;20034;-52
2023/09/20 11:51:28;;;;;;;3.72;1.40;;;30.30;68.90;;;;;;5022728;28;20029;-52
2023/09/20 11:53:55;;;;;;;3.90;1.75;;;29.60;69.50;;;;;;5031191;28;20037;-52
2023/09/20 11:56:30;;;;;;;2.75;1.75;;;29.10;70.80;;;;;;5027347;28;20032;-51
2023/09/20 11:58:59;;;;;;;3.15;1.60;;;28.30;71.70;;;;;;5026242;28;20022;-52
2023/09/20 12:01:29;;;;;;;3.00;1.40;;;28.50;71.90;;;;;;5026780;28;20534;-52
2023/09/20 12:03:55;;;;;;;;;;;28.90;71.80;;;;;;5024806;28;20392;-52
2023/09/20 12:06:21;;;;;;;2.53;1.30;;;28.80;73.30;;;;;;5026469;28;19909;-52
2023/09/20 12:08:48;;;;;;;3.25;1.58;;;29.30;72.70;;;;;;5023616;28;20594;-53
2023/09/20 12:11:14;;;;;;;2.88;1.58;;;29.40;70.60;;;;;;5020645;28;20044;-52
2023/09/20 12:13:42;;;;;;;3.28;1.45;;;29.50;72.40;;;;;;5026365;28;20064;-52
2023/09/20 12:16:08;;;;;;;3.47;1.65;;;29.10;70.90;;;;;;5025874;28;20102;-52
2023/09/20 12:18:36;;;;;;;7.43;1.92;;;28.50;71.70;;;;;;5027365;28;20025;-52
2023/09/20 12:21:07;;;;;;;3.55;1.60;;;28.20;72.00;;;;;;5024721;28;20058;-51
2023/09/20 12:23:35;;;;;;;5.75;1.45;;;28.00;72.50;;;;;;5025441;28;20039;-52
2023/09/20 12:26:01;;;;;;;4.43;1.63;;;27.60;74.30;;;;;;5027484;28;20022;-51
2023/09/20 12:28:26;;;;;;;2.95;1.70;;;27.50;73.90;;;;;;5026249;28;20024;-51
2023/09/20 12:30:52;;;;;;;5.15;1.50;;;27.40;74.20;;;;;;5025142;28;20025;-50
2023/09/20 12:33:19;;;;;;;6.13;1.23;;;27.60;75.10;;;;;;5021601;28;20033;-52
2023/09/20 12:35:46;;;;;;;6.72;1.63;;;28.20;72.60;;;;;;5024128;28;20525;-52
2023/09/20 12:38:11;;;;;;;3.60;1.67;;;28.40;73.70;;;;;;5026348;28;20036;-51
2023/09/20 12:40:37;;;;;;;66.50;51.63;;;28.60;71.20;;;;;;5028179;28;20100;-52
2023/09/20 12:43:03;;;;;;;5.50;1.77;;;28.70;71.50;;;;;;5024255;28;20422;-52
2023/09/20 12:45:29;;;;;;;5.18;1.58;;;28.60;72.30;;;;;;5026392;28;20025;-52
2023/09/20 12:47:55;;;;;;;4.57;1.80;;;28.40;71.90;;;;;;5024641;28;20073;-54
2023/09/20 12:50:21;;;;;;;5.97;1.60;;;28.10;72.10;;;;;;5026036;28;20049;-53
2023/09/20 12:52:48;;;;;;;2.17;1.55;;;28.20;72.50;;;;;;5017992;28;20072;-53
2023/09/20 12:55:14;;;;;;;5.80;1.90;;;28.30;71.70;;;;;;5026266;28;20521;-54
2023/09/20 12:57:40;;;;;;;5.50;1.48;;;28.20;72.40;;;;;;5024803;28;20087;-53
2023/09/20 13:00:09;;;;;;;3.78;1.83;;;27.70;72.50;;;;;;5040057;28;20014;-53
2023/09/20 13:02:35;;;;;;;3.30;1.77;;;27.60;74.60;;;;;;5021790;28;20030;-54
2023/09/20 13:05:01;;;;;;;4.55;1.70;;;28.00;74.80;;;;;;5027357;28;20025;-53
2023/09/20 13:07:27;;;;;;;2.55;1.48;;;27.90;73.10;;;;;;5026030;28;20487;-53
2023/09/20 13:09:53;;;;;;;1.92;1.20;;;27.80;74.70;;;;;;5026862;28;20036;-53
2023/09/20 13:12:21;;;;;;;4.63;1.42;;;27.90;75.30;;;;;;5025626;28;20181;-53
2023/09/20 13:14:46;;;;;;;3.88;1.50;;;27.50;73.60;;;;;;5023034;28;20108;-53
2023/09/20 13:17:12;;;;;;;2.10;1.60;;;27.50;74.60;;;;;;5027950;28;20120;-53
2023/09/20 13:19:38;;;;;;;2.30;1.45;;;27.30;75.20;;;;;;5025424;28;20076;-53
2023/09/20 13:22:05;;;;;;;3.67;1.50;;;27.20;74.60;;;;;;5024955;28;20108;-53
2023/09/20 13:24:34;;;;;;;3.35;1.33;;;27.30;76.10;;;;;;5025964;28;20022;-54
2023/09/20 13:27:01;;;;;;;5.45;1.58;;;27.30;75.20;;;;;;5025461;28;20391;-53
2023/09/20 13:29:28;;;;;;;4.78;1.30;;;27.30;75.60;;;;;;5025177;28;20028;-53
2023/09/20 13:31:54;;;;;;;4.88;1.48;;;27.30;77.10;;;;;;5024264;28;20648;-53